Time;durP1;ratioP1;P1;durP2;ratioP2;P2;SDS_P1;SDS_P2;PMS_P1;PMS_P2;Temp;Humidity;BMP_temperature;BMP_pressure;BME280_temperature;BME280_humidity;BME280_pressure;Samples;Min_cycle;Max_cycle;Signal;HPM_P1;HPM_P2
2022/12/16 00:00:13;;;;;;;35.53;14.17;;;;;;;0.05;100.00;100676.29;1779805;80;21029;-68
2022/12/16 00:02:41;;;;;;;35.07;14.13;;;;;;;0.08;100.00;100677.94;1791998;80;22438;-68
2022/12/16 00:05:09;;;;;;;28.73;11.40;;;;;;;0.11;100.00;100687.92;1774933;80;21033;-69
2022/12/16 00:07:36;;;;;;;57.70;19.80;;;;;;;0.13;100.00;100686.03;1790513;80;21447;-68
2022/12/16 00:10:06;;;;;;;46.77;16.83;;;;;;;0.13;100.00;100689.17;1770390;80;21022;-68
2022/12/16 00:12:32;;;;;;;37.03;14.23;;;;;;;0.11;100.00;100693.72;1772038;80;20987;-68
2022/12/16 00:15:00;;;;;;;85.37;29.77;;;;;;;0.08;100.00;100697.87;1789799;80;21022;-69
2022/12/16 00:17:27;;;;;;;62.63;22.73;;;;;;;0.07;100.00;100691.72;1789723;80;21511;-68
2022/12/16 00:19:54;;;;;;;27.93;12.37;;;;;;;0.10;100.00;100695.98;1784959;80;21022;-69
2022/12/16 00:22:22;;;;;;;29.70;11.47;;;;;;;0.10;100.00;100692.84;1787849;80;20994;-68
2022/12/16 00:24:49;;;;;;;26.63;11.10;;;;;;;0.09;100.00;100700.45;1773549;80;21058;-68
2022/12/16 00:27:17;;;;;;;34.57;12.97;;;;;;;0.10;100.00;100699.49;1796167;80;21006;-68
2022/12/16 00:29:45;;;;;;;22.57;9.33;;;;;;;0.12;100.00;100706.91;1770595;80;20993;-69
2022/12/16 00:32:13;;;;;;;24.03;10.30;;;;;;;0.15;100.00;100713.87;1785958;80;21027;-68
2022/12/16 00:34:40;;;;;;;19.90;8.83;;;;;;;0.18;100.00;100711.05;1788237;80;21467;-68
2022/12/16 00:37:09;;;;;;;20.90;9.03;;;;;;;0.17;100.00;100703.52;1794632;80;21038;-69
2022/12/16 00:39:36;;;;;;;32.23;14.40;;;;;;;0.18;100.00;100709.71;1743559;80;21030;-68
2022/12/16 00:42:03;;;;;;;25.03;11.70;;;;;;;0.19;100.00;100714.06;1787049;80;21034;-68
2022/12/16 00:44:32;;;;;;;25.33;11.53;;;;;;;0.17;100.00;100734.09;1776148;80;21498;-67
2022/12/16 00:47:03;;;;;;;20.10;9.53;;;;;;;0.15;100.00;100729.34;1766591;80;21025;-68
2022/12/16 00:49:30;;;;;;;24.10;8.97;;;;;;;0.12;100.00;100717.54;1774717;80;21033;-67
2022/12/16 00:51:58;;;;;;;23.93;10.47;;;;;;;0.12;100.00;100709.56;1779743;80;21053;-68
2022/12/16 00:54:27;;;;;;;32.90;12.73;;;;;;;0.12;100.00;100700.73;1779747;80;21535;-68
2022/12/16 00:56:55;;;;;;;39.87;14.57;;;;;;;0.12;100.00;100694.09;1777069;80;21041;-69
2022/12/16 00:59:22;;;;;;;43.17;17.23;;;;;;;0.12;100.00;100686.95;1784938;80;21014;-68
2022/12/16 01:01:51;;;;;;;38.30;14.80;;;;;;;0.13;100.00;100687.36;1794320;80;21011;-68
2022/12/16 01:04:18;;;;;;;28.00;12.60;;;;;;;0.12;100.00;100683.45;1781605;80;21444;-68
2022/12/16 01:06:46;;;;;;;26.80;12.97;;;;;;;0.08;100.00;100678.78;1766068;80;21033;-68
2022/12/16 01:09:13;;;;;;;22.73;11.00;;;;;;;0.06;100.00;100667.38;1779781;80;21037;-69
2022/12/16 01:11:40;;;;;;;22.50;10.67;;;;;;;0.03;100.00;100658.73;1785256;80;21089;-68
2022/12/16 01:14:07;;;;;;;22.83;10.60;;;;;;;0.02;100.00;100659.66;1785113;80;20994;-68
2022/12/16 01:16:34;;;;;;;27.20;11.90;;;;;;;0.01;100.00;100653.98;1790210;79;21085;-68
2022/12/16 01:19:02;;;;;;;28.97;12.47;;;;;;;-0.03;100.00;100636.02;1789521;80;21022;-68
2022/12/16 01:21:29;;;;;;;24.83;12.20;;;;;;;-0.06;100.00;100625.55;1781024;80;21551;-68
2022/12/16 01:23:58;;;;;;;25.57;12.07;;;;;;;-0.10;100.00;100614.23;1784892;80;21010;-67
2022/12/16 01:26:25;;;;;;;24.10;11.27;;;;;;;-0.14;100.00;100612.71;1796234;80;21034;-68
2022/12/16 01:28:52;;;;;;;24.77;10.40;;;;;;;-0.20;100.00;100616.55;1796198;80;21055;-68
2022/12/16 01:31:19;;;;;;;19.70;9.10;;;;;;;-0.24;100.00;100616.83;1772993;80;21018;-68
2022/12/16 01:33:47;;;;;;;20.33;9.50;;;;;;;-0.29;100.00;100625.54;1781913;80;21081;-67
2022/12/16 01:36:14;;;;;;;23.47;9.90;;;;;;;-0.33;100.00;100632.83;1776267;80;21104;-67
2022/12/16 01:38:43;;;;;;;24.77;10.10;;;;;;;-0.36;100.00;100630.34;1789542;80;21587;-68
2022/12/16 01:41:12;;;;;;;23.90;10.23;;;;;;;-0.40;100.00;100640.28;1770395;80;21022;-68
2022/12/16 01:43:39;;;;;;;21.40;9.43;;;;;;;-0.42;100.00;100643.50;1788183;80;21037;-68
2022/12/16 01:46:15;;;;;;;19.97;8.67;;;;;;;-0.43;100.00;100639.59;1780526;80;21046;-68
2022/12/16 01:49:05;;;;;;;20.70;9.53;;;;;;;-0.44;100.00;100638.75;1791079;80;21061;-68
2022/12/16 01:51:36;;;;;;;22.10;9.57;;;;;;;-0.47;100.00;100624.30;1765948;80;21530;-66
2022/12/16 01:54:25;;;;;;;21.77;9.20;;;;;;;-0.49;100.00;100634.16;1770543;80;21017;-67
2022/12/16 01:56:58;;;;;;;20.20;8.97;;;;;;;-0.53;100.00;100632.63;1779760;80;20971;-68
2022/12/16 01:59:26;;;;;;;19.43;7.90;;;;;;;-0.56;100.00;100635.45;1793447;80;21026;-67
2022/12/16 02:01:53;;;;;;;20.03;8.47;;;;;;;-0.57;100.00;100657.63;1793817;80;21484;-67
2022/12/16 02:04:20;;;;;;;27.60;9.63;;;;;;;-0.56;100.00;100673.12;1794778;80;21030;-67
2022/12/16 02:06:48;;;;;;;106.97;30.47;;;;;;;-0.56;100.00;100682.42;1767565;80;21062;-66
2022/12/16 02:09:15;;;;;;;58.30;20.90;;;;;;;-0.54;100.00;100709.27;1787635;80;21002;-67
2022/12/16 02:12:27;;;;;;;37.67;15.30;;;;;;;-0.53;100.00;100719.41;1786612;80;21116;-68
2022/12/16 02:15:02;;;;;;;30.60;13.27;;;;;;;-0.54;100.00;100706.62;1781731;80;21018;-67
2022/12/16 02:17:59;;;;;;;32.90;13.37;;;;;;;-0.55;100.00;100686.29;1793319;79;21003;-67
2022/12/16 02:20:58;;;;;;;26.70;11.77;;;;;;;-0.57;100.00;100674.89;1740924;80;21054;-67
2022/12/16 02:24:11;;;;;;;23.43;10.17;;;;;;;-0.56;100.00;100668.66;1774292;80;21148;-67
2022/12/16 02:27:11;;;;;;;21.77;9.63;;;;;;;-0.60;100.00;100645.39;1776297;80;21029;-68
2022/12/16 02:30:06;;;;;;;21.33;8.97;;;;;;;-0.64;100.00;100637.21;1770972;80;21019;-67
2022/12/16 02:33:01;;;;;;;18.60;7.80;;;;;;;-0.68;100.00;100638.30;1789063;80;21018;-67
2022/12/16 02:35:49;;;;;;;20.93;8.37;;;;;;;-0.70;100.00;100646.83;1794707;80;21069;-68
2022/12/16 02:38:36;;;;;;;22.40;10.40;;;;;;;-0.73;100.00;100650.13;1778755;80;20999;-66
2022/12/16 02:41:07;;;;;;;24.27;9.77;;;;;;;-0.75;100.00;100659.50;1782927;80;21076;-67
2022/12/16 02:43:58;;;;;;;21.67;9.27;;;;;;;-0.78;100.00;100656.55;1781632;80;21046;-67
2022/12/16 02:46:29;;;;;;;21.57;9.63;;;;;;;-0.79;100.00;100653.50;1784588;80;21026;-67
2022/12/16 02:48:56;;;;;;;19.80;8.80;;;;;;;-0.79;100.00;100661.94;1796442;80;21014;-67
2022/12/16 02:51:24;;;;;;;20.67;9.03;;;;;;;-0.80;100.00;100674.82;1784675;80;21042;-67
2022/12/16 02:53:52;;;;;;;22.10;9.93;;;;;;;-0.82;100.00;100690.83;1789628;80;21063;-68
2022/12/16 02:56:53;;;;;;;37.40;14.30;;;;;;;-0.79;100.00;100701.78;1772972;80;21029;-67
2022/12/16 02:59:39;;;;;;;24.27;11.83;;;;;;;-0.77;100.00;100718.00;1781688;80;21590;-68
2022/12/16 03:02:15;;;;;;;25.33;12.07;;;;;;;-0.78;100.00;100728.25;1785496;80;22232;-67
2022/12/16 03:04:48;;;;;;;24.57;10.97;;;;;;;-0.78;100.00;100738.00;1784028;80;21006;-67
2022/12/16 03:07:17;;;;;;;25.02;11.18;;;;;;;-0.78;100.00;100740.20;1774919;80;21514;-68
2022/12/16 03:09:45;;;;;;;23.10;10.27;;;;;;;-0.78;100.00;100746.84;1766240;80;21009;-66
2022/12/16 03:12:14;;;;;;;22.97;9.80;;;;;;;-0.75;100.00;100752.45;1782778;80;21002;-67
2022/12/16 03:14:44;;;;;;;23.60;10.10;;;;;;;-0.73;100.00;100740.42;1785746;80;21506;-66
2022/12/16 03:17:12;;;;;;;19.87;9.13;;;;;;;-0.73;100.00;100729.31;1779147;80;21578;-67
2022/12/16 03:19:41;;;;;;;20.80;9.80;;;;;;;-0.72;100.00;100722.23;1788463;80;21002;-66
2022/12/16 03:22:18;;;;;;;19.60;8.70;;;;;;;-0.74;100.00;100719.66;1771776;80;21011;-66
2022/12/16 03:24:45;;;;;;;22.00;9.20;;;;;;;-0.74;100.00;100728.95;1794331;80;21037;-67
2022/12/16 03:27:25;;;;;;;21.57;9.00;;;;;;;-0.72;100.00;100718.25;1792612;80;21128;-67
2022/12/16 03:30:07;;;;;;;25.03;10.60;;;;;;;-0.69;100.00;100704.33;1778846;80;21057;-67
2022/12/16 03:32:51;;;;;;;26.97;11.40;;;;;;;-0.67;100.00;100705.10;1796706;80;21030;-67
2022/12/16 03:35:42;;;;;;;;;;;;;;;-0.68;100.00;100700.72;1798095;80;21526;-67
2022/12/16 03:38:10;;;;;;;25.53;10.43;;;;;;;-0.66;100.00;100709.45;1784944;80;20096;-67
2022/12/16 03:40:38;;;;;;;28.57;11.50;;;;;;;-0.66;100.00;100729.86;1754183;81;21071;-67
2022/12/16 03:43:05;;;;;;;23.10;10.60;;;;;;;-0.62;100.00;100753.97;1737622;81;21021;-67
2022/12/16 03:45:38;;;;;;;23.37;10.83;;;;;;;-0.59;100.00;100768.43;1787281;80;21530;-67
2022/12/16 03:48:08;;;;;;;20.02;9.25;;;;;;;-0.56;100.00;100779.37;1787031;80;21034;-67
2022/12/16 03:50:35;;;;;;;21.63;9.57;;;;;;;-0.53;100.00;100772.55;1786172;80;21097;-67
2022/12/16 03:53:02;;;;;;;22.00;8.57;;;;;;;-0.51;100.00;100762.70;1795476;80;21077;-67
2022/12/16 03:55:29;;;;;;;22.77;9.57;;;;;;;-0.52;100.00;100752.55;1742277;81;21093;-67
2022/12/16 03:57:56;;;;;;;22.37;9.53;;;;;;;-0.50;100.00;100754.65;1761457;80;21077;-67
2022/12/16 04:00:24;;;;;;;20.93;8.77;;;;;;;-0.46;100.00;100772.61;1744178;81;21049;-68
2022/12/16 04:02:51;;;;;;;23.07;9.13;;;;;;;-0.45;100.00;100767.70;1741157;81;21025;-67
2022/12/16 04:05:18;;;;;;;22.13;9.57;;;;;;;-0.44;100.00;100758.80;1741376;81;21006;-67
2022/12/16 04:07:45;;;;;;;23.07;9.33;;;;;;;-0.44;100.00;100758.31;1764231;80;21095;-67
2022/12/16 04:10:12;;;;;;;22.10;9.30;;;;;;;-0.41;100.00;100766.58;1781825;80;21491;-67
2022/12/16 04:27:23;;;;;;;24.30;10.53;;;;;;;-0.41;100.00;100771.45;1795582;80;21555;-66
2022/12/16 04:29:04;;;;;;;24.17;11.13;;;;;;;-0.43;100.00;100769.80;1792554;80;21500;-67
2022/12/16 04:31:32;;;;;;;23.93;10.67;;;;;;;-0.43;100.00;100779.94;1788830;80;21500;-68
